createdAt,value
2017-04-06T00:00:49.137Z,23.84
2017-04-06T00:01:48.951Z,23.84
2017-04-06T00:02:48.853Z,23.78
2017-04-06T00:03:49.350Z,23.85
2017-04-06T00:04:49.332Z,23.84
2017-04-06T00:05:50.233Z,23.87
2017-04-06T00:06:49.006Z,23.78
2017-04-06T00:07:49.296Z,23.83
2017-04-06T00:08:49.347Z,23.83
2017-04-06T00:09:49.349Z,23.8
2017-04-06T00:10:49.938Z,23.78
2017-04-06T00:11:49.069Z,23.79
2017-04-06T00:12:48.967Z,23.76
2017-04-06T00:13:49.329Z,23.75
2017-04-06T00:14:49.382Z,23.83
2017-04-06T00:15:49.672Z,23.84
2017-04-06T00:16:49.074Z,23.73
2017-04-06T00:17:49.227Z,23.73
2017-04-06T00:18:49.265Z,23.8
2017-04-06T00:19:49.293Z,23.87
2017-04-06T00:20:50.639Z,23.73
2017-04-06T00:21:51.257Z,23.88
2017-04-06T00:22:49.413Z,23.87
2017-04-06T00:23:49.127Z,23.76
2017-04-06T00:24:49.126Z,23.85
2017-04-06T00:25:49.403Z,23.84
2017-04-06T00:26:49.452Z,23.83
2017-04-06T00:27:48.982Z,23.78
2017-04-06T00:28:49.375Z,23.76
2017-04-06T00:29:48.992Z,23.78
2017-04-06T00:30:49.015Z,23.76
2017-04-06T00:31:49.416Z,23.73
2017-04-06T00:32:49.370Z,23.7
2017-04-06T00:33:51.372Z,23.69
2017-04-06T00:34:48.843Z,23.7
2017-04-06T00:35:49.111Z,23.76
2017-04-06T00:36:49.563Z,23.76
2017-04-06T00:37:49.490Z,23.7
2017-04-06T00:38:49.562Z,23.7
2017-04-06T00:39:49.233Z,23.73
2017-04-06T00:40:49.466Z,23.75
2017-04-06T00:41:49.260Z,23.78
2017-04-06T00:42:49.451Z,23.7
2017-04-06T00:43:50.405Z,23.68
2017-04-06T00:44:49.593Z,23.78
2017-04-06T00:45:49.516Z,23.73
2017-04-06T00:46:49.459Z,23.73
2017-04-06T00:47:48.926Z,23.78
2017-04-06T00:48:50.373Z,23.76
2017-04-06T00:49:49.247Z,23.78
2017-04-06T00:50:49.538Z,23.78
2017-04-06T00:51:49.292Z,23.75
2017-04-06T00:52:49.361Z,23.8
2017-04-06T00:53:49.586Z,23.68
2017-04-06T00:54:49.482Z,23.65
2017-04-06T00:55:49.301Z,23.73
2017-04-06T00:56:49.545Z,23.72
2017-04-06T00:57:49.209Z,23.72
2017-04-06T00:58:49.589Z,23.66
2017-04-06T00:59:49.660Z,23.61
2017-04-06T01:00:49.577Z,23.73
2017-04-06T01:01:49.628Z,23.75
2017-04-06T01:02:49.548Z,23.76
2017-04-06T01:03:49.419Z,23.65
2017-04-06T01:04:49.700Z,23.75
2017-04-06T01:05:49.270Z,23.63
2017-04-06T01:06:49.364Z,23.69
2017-04-06T01:07:49.744Z,23.66
2017-04-06T01:08:49.508Z,23.75
2017-04-06T01:09:49.667Z,23.73
2017-04-06T01:10:49.797Z,23.69
2017-04-06T01:11:49.698Z,23.73
2017-04-06T01:12:49.750Z,23.7
2017-04-06T01:13:49.355Z,23.69
2017-04-06T01:14:49.593Z,23.75
2017-04-06T01:15:49.720Z,23.69
2017-04-06T01:16:49.596Z,23.72
2017-04-06T01:17:50.572Z,23.57
2017-04-06T01:18:49.801Z,23.61
2017-04-06T01:19:49.409Z,23.65
2017-04-06T01:20:49.459Z,23.76
2017-04-06T01:21:49.541Z,23.68
2017-04-06T01:22:50.716Z,23.65
2017-04-06T01:23:49.911Z,23.76
2017-04-06T01:24:49.790Z,23.68
2017-04-06T01:25:49.902Z,23.76
2017-04-06T01:26:49.902Z,23.66
2017-04-06T01:27:49.791Z,23.72
2017-04-06T01:28:49.634Z,23.69
2017-04-06T01:29:49.756Z,23.69
2017-04-06T01:30:49.933Z,23.72
2017-04-06T01:31:49.647Z,23.79
2017-04-06T01:32:50.083Z,23.65
2017-04-06T01:33:49.709Z,23.65
2017-04-06T01:34:49.783Z,23.54
2017-04-06T01:35:49.944Z,23.66
2017-04-06T01:36:49.558Z,23.55
2017-04-06T01:37:49.892Z,23.6
2017-04-06T01:38:49.899Z,23.51
2017-04-06T01:39:49.987Z,23.57
2017-04-06T01:40:49.474Z,23.65
2017-04-06T01:41:49.782Z,23.66
2017-04-06T01:42:49.899Z,23.69
2017-04-06T01:43:49.847Z,23.66
2017-04-06T01:44:49.798Z,23.66
2017-04-06T01:45:49.937Z,23.65
2017-04-06T01:46:49.692Z,23.76
2017-04-06T01:47:51.960Z,23.66
2017-04-06T01:48:49.891Z,23.69
2017-04-06T01:49:49.832Z,23.69
2017-04-06T01:50:51.012Z,23.78
2017-04-06T01:51:49.939Z,23.7
2017-04-06T01:52:49.855Z,23.75
2017-04-06T01:53:50.172Z,23.76
2017-04-06T01:54:50.040Z,23.79
2017-04-06T01:55:49.586Z,23.78
2017-04-06T01:56:49.977Z,23.76
2017-04-06T01:57:49.699Z,23.69
2017-04-06T01:58:50.784Z,23.75
2017-04-06T01:59:50.063Z,23.69
2017-04-06T02:00:49.776Z,23.63
2017-04-06T02:01:50.252Z,23.73
2017-04-06T02:02:49.540Z,23.78
2017-04-06T02:03:49.897Z,23.72
2017-04-06T02:04:51.574Z,23.65
2017-04-06T02:05:50.009Z,23.8
2017-04-06T02:06:50.427Z,23.8
2017-04-06T02:07:49.704Z,23.76
2017-04-06T02:08:50.088Z,23.73
2017-04-06T02:09:49.904Z,23.78
2017-04-06T02:10:49.746Z,23.8
2017-04-06T02:11:50.055Z,23.78
2017-04-06T02:12:50.036Z,23.78
2017-04-06T02:13:50.048Z,23.75
2017-04-06T02:14:49.340Z,23.87
2017-04-06T02:15:50.056Z,23.85
2017-04-06T02:16:50.060Z,23.83
2017-04-06T02:17:50.262Z,23.83
2017-04-06T02:18:49.998Z,23.8
2017-04-06T02:19:50.089Z,23.83
2017-04-06T02:20:50.106Z,23.83
2017-04-06T02:21:51.622Z,23.8
2017-04-06T02:22:50.079Z,23.85
2017-04-06T02:23:49.932Z,23.8
2017-04-06T02:24:49.777Z,23.84
2017-04-06T02:25:50.182Z,23.8
2017-04-06T02:26:50.125Z,23.8
2017-04-06T02:27:49.855Z,23.79
2017-04-06T02:28:50.102Z,23.87
2017-04-06T02:29:50.183Z,23.88
2017-04-06T02:30:49.832Z,23.9
2017-04-06T02:31:49.809Z,23.78
2017-04-06T02:32:50.075Z,23.88
2017-04-06T02:33:50.136Z,23.83
2017-04-06T02:34:49.973Z,23.78
2017-04-06T02:35:50.169Z,23.8
2017-04-06T02:36:50.124Z,23.84
2017-04-06T02:37:50.100Z,23.83
2017-04-06T02:38:50.934Z,23.75
2017-04-06T02:39:50.284Z,23.88
2017-04-06T02:40:50.085Z,23.73
2017-04-06T02:41:50.184Z,23.8
2017-04-06T02:42:50.311Z,23.76
2017-04-06T02:43:50.426Z,23.84
2017-04-06T02:44:49.902Z,23.8
2017-04-06T02:45:49.836Z,23.72
2017-04-06T02:46:50.276Z,23.78
2017-04-06T02:47:50.292Z,23.78
2017-04-06T02:48:50.415Z,23.85
2017-04-06T02:49:50.320Z,23.83
2017-04-06T02:50:50.385Z,23.78
2017-04-06T02:51:50.477Z,23.84
2017-04-06T02:52:50.217Z,23.78
2017-04-06T02:53:50.262Z,23.9
2017-04-06T02:54:50.893Z,23.87
2017-04-06T02:55:50.321Z,23.85
2017-04-06T02:56:49.989Z,23.93
2017-04-06T02:57:50.034Z,23.93
2017-04-06T02:58:50.024Z,23.88
2017-04-06T02:59:50.365Z,23.84
2017-04-06T03:00:50.397Z,23.94
2017-04-06T03:01:50.410Z,23.91
2017-04-06T03:02:49.993Z,23.85
2017-04-06T03:03:50.309Z,23.85
2017-04-06T03:04:50.139Z,23.91
2017-04-06T03:05:50.346Z,23.94
2017-04-06T03:06:50.452Z,23.91
2017-04-06T03:07:50.437Z,23.93
2017-04-06T03:08:50.041Z,23.85
2017-04-06T03:09:49.991Z,23.88
2017-04-06T03:10:50.105Z,23.94
2017-04-06T03:11:50.380Z,23.84
2017-04-06T03:12:50.121Z,23.83
2017-04-06T03:13:50.145Z,23.79
2017-04-06T03:14:50.475Z,23.91
2017-04-06T03:15:50.448Z,23.87
2017-04-06T03:16:50.228Z,23.85
2017-04-06T03:17:50.515Z,23.94
2017-04-06T03:18:50.077Z,23.87
2017-04-06T03:19:50.209Z,23.9
2017-04-06T03:20:50.991Z,23.9
2017-04-06T03:21:50.435Z,23.91
2017-04-06T03:22:50.189Z,23.91
2017-04-06T03:23:50.627Z,23.9
2017-04-06T03:24:50.163Z,23.97
2017-04-06T03:25:50.050Z,23.95
2017-04-06T03:26:50.443Z,23.93
2017-04-06T03:27:50.277Z,23.9
2017-04-06T03:28:50.600Z,23.87
2017-04-06T03:29:50.634Z,23.97
2017-04-06T03:30:50.152Z,23.94
2017-04-06T03:31:50.545Z,23.87
2017-04-06T03:32:50.519Z,23.94
2017-04-06T03:33:50.498Z,23.91
2017-04-06T03:34:50.380Z,23.9
2017-04-06T03:35:50.482Z,24
2017-04-06T03:36:50.436Z,23.94
2017-04-06T03:37:50.574Z,23.87
2017-04-06T03:38:50.224Z,23.91
2017-04-06T03:39:50.547Z,23.87
2017-04-06T03:40:50.492Z,23.85
2017-04-06T03:41:50.639Z,23.9
2017-04-06T03:42:50.514Z,23.88
2017-04-06T03:43:50.695Z,23.88
2017-04-06T03:44:50.310Z,23.91
2017-04-06T03:45:50.762Z,23.9
2017-04-06T03:46:50.278Z,23.88
2017-04-06T03:47:50.594Z,23.93
2017-04-06T03:48:50.315Z,23.93
2017-04-06T03:49:50.743Z,23.93
2017-04-06T03:50:50.745Z,23.87
2017-04-06T03:51:50.785Z,23.88
2017-04-06T03:52:50.599Z,23.95
2017-04-06T03:53:50.729Z,23.85
2017-04-06T03:54:50.567Z,23.97
2017-04-06T03:55:50.764Z,23.95
2017-04-06T03:56:50.597Z,23.94
2017-04-06T03:57:50.886Z,23.9
2017-04-06T03:58:50.713Z,23.88
2017-04-06T03:59:50.774Z,23.85
2017-04-06T04:00:50.738Z,23.91
2017-04-06T04:01:50.708Z,23.83
2017-04-06T04:02:50.684Z,23.84
2017-04-06T04:03:50.883Z,23.87
2017-04-06T04:04:50.411Z,23.88
2017-04-06T04:05:50.800Z,23.83
2017-04-06T04:06:50.614Z,23.8
2017-04-06T04:07:50.297Z,23.9
2017-04-06T04:08:50.087Z,23.87
2017-04-06T04:09:50.417Z,23.87
2017-04-06T04:10:51.860Z,23.88
2017-04-06T04:11:50.693Z,23.83
2017-04-06T04:12:50.708Z,23.84
2017-04-06T04:13:50.857Z,23.88
2017-04-06T04:14:50.959Z,23.87
2017-04-06T04:15:50.839Z,23.9
2017-04-06T04:16:50.927Z,23.83
2017-04-06T04:17:50.762Z,23.83
2017-04-06T04:18:50.528Z,23.88
2017-04-06T04:19:50.159Z,23.87
2017-04-06T04:20:50.518Z,23.78
2017-04-06T04:21:50.827Z,23.87
2017-04-06T04:22:50.795Z,23.8
2017-04-06T04:23:50.760Z,23.76
2017-04-06T04:24:50.821Z,23.79
2017-04-06T04:25:50.532Z,23.88
2017-04-06T04:26:50.761Z,23.78
2017-04-06T04:27:50.835Z,23.9
2017-04-06T04:28:50.910Z,23.84
2017-04-06T04:29:50.879Z,23.8
2017-04-06T04:30:50.490Z,23.85
2017-04-06T04:31:50.937Z,23.85
2017-04-06T04:32:50.510Z,23.78
2017-04-06T04:33:50.772Z,23.87
2017-04-06T04:34:50.676Z,23.75
2017-04-06T04:35:50.945Z,23.84
2017-04-06T04:36:50.894Z,23.79
2017-04-06T04:37:50.994Z,23.76
2017-04-06T04:38:50.488Z,23.73
2017-04-06T04:39:50.841Z,23.75
2017-04-06T04:40:50.875Z,23.72
2017-04-06T04:41:50.909Z,23.65
2017-04-06T04:42:50.305Z,23.76
2017-04-06T04:43:50.570Z,23.76
2017-04-06T04:44:50.846Z,23.76
2017-04-06T04:45:50.880Z,23.73
2017-04-06T04:46:50.604Z,23.76
2017-04-06T04:47:50.977Z,23.87
2017-04-06T04:48:50.983Z,23.84
2017-04-06T04:49:51.057Z,23.76
2017-04-06T04:50:50.689Z,23.8
2017-04-06T04:51:50.947Z,23.79
2017-04-06T04:52:52.050Z,23.78
2017-04-06T04:53:51.152Z,23.69
2017-04-06T04:54:50.607Z,23.7
2017-04-06T04:55:51.098Z,23.78
2017-04-06T04:56:51.019Z,23.83
2017-04-06T04:57:50.981Z,23.76
2017-04-06T04:58:50.985Z,23.73
2017-04-06T04:59:50.731Z,23.83
2017-04-06T05:00:50.948Z,23.85
2017-04-06T05:01:51.008Z,23.85
2017-04-06T05:02:51.012Z,23.76
2017-04-06T05:03:50.660Z,23.84
2017-04-06T05:04:51.071Z,23.88
2017-04-06T05:05:50.765Z,23.84
2017-04-06T05:06:50.986Z,23.91
2017-04-06T05:07:50.978Z,23.83
2017-04-06T05:08:50.727Z,23.87
2017-04-06T05:09:51.117Z,23.8
2017-04-06T05:10:50.748Z,23.76
2017-04-06T05:11:51.058Z,23.84
2017-04-06T05:12:50.700Z,23.78
2017-04-06T05:13:51.170Z,23.8
2017-04-06T05:14:51.117Z,23.79
2017-04-06T05:15:51.125Z,23.84
2017-04-06T05:16:51.101Z,23.84
2017-04-06T05:17:50.782Z,23.85
2017-04-06T05:18:51.193Z,23.84
2017-04-06T05:19:51.108Z,23.87
2017-04-06T05:20:51.166Z,23.84
2017-04-06T05:21:50.810Z,23.85
2017-04-06T05:22:51.078Z,23.87
2017-04-06T05:23:51.140Z,23.84
2017-04-06T05:24:50.518Z,23.8
2017-04-06T05:25:51.153Z,23.87
2017-04-06T05:26:50.788Z,23.79
2017-04-06T05:27:51.109Z,23.87
2017-04-06T05:28:51.162Z,23.76
2017-04-06T05:29:51.137Z,23.8
2017-04-06T05:30:50.912Z,23.76
2017-04-06T05:31:51.196Z,23.87
2017-04-06T05:32:51.137Z,23.87
2017-04-06T05:33:53.419Z,23.85
2017-04-06T05:34:51.157Z,23.84
2017-04-06T05:35:51.180Z,23.78
2017-04-06T05:36:51.315Z,23.8
2017-04-06T05:37:51.534Z,23.91
2017-04-06T05:38:50.875Z,23.87
2017-04-06T05:39:50.927Z,23.9
2017-04-06T05:40:51.290Z,23.85
2017-04-06T05:41:50.938Z,23.84
2017-04-06T05:42:50.895Z,23.8
2017-04-06T05:43:51.311Z,23.76
2017-04-06T05:44:51.263Z,23.75
2017-04-06T05:45:51.335Z,23.63
2017-04-06T05:46:51.278Z,23.65
2017-04-06T05:47:51.292Z,23.73
2017-04-06T05:48:51.372Z,23.8
2017-04-06T05:49:50.987Z,23.75
2017-04-06T05:50:51.363Z,23.78
2017-04-06T05:51:51.267Z,23.85
2017-04-06T05:52:51.314Z,23.79
2017-04-06T05:53:51.379Z,23.83
2017-04-06T05:54:52.889Z,23.79
2017-04-06T05:55:51.016Z,23.75
2017-04-06T05:56:51.338Z,23.79
2017-04-06T05:57:51.353Z,23.85
2017-04-06T05:58:51.352Z,23.8
2017-04-06T05:59:51.043Z,23.83
2017-04-06T06:00:51.395Z,23.75
2017-04-06T06:01:51.059Z,23.85
2017-04-06T06:02:51.373Z,23.85
2017-04-06T06:03:51.333Z,23.88
2017-04-06T06:04:51.398Z,23.9
2017-04-06T06:05:51.498Z,23.87
2017-04-06T06:06:51.366Z,23.8
2017-04-06T06:07:51.406Z,23.83
2017-04-06T06:08:51.413Z,23.8
2017-04-06T06:09:51.055Z,23.8
2017-04-06T06:10:51.172Z,23.84
2017-04-06T06:11:51.392Z,23.85
2017-04-06T06:12:51.390Z,23.8
2017-04-06T06:13:51.192Z,23.88
2017-04-06T06:14:51.512Z,23.9
2017-04-06T06:15:51.410Z,23.88
2017-04-06T06:16:51.416Z,23.87
2017-04-06T06:17:51.479Z,23.87
2017-04-06T06:18:51.114Z,23.84
2017-04-06T06:19:51.493Z,23.8
2017-04-06T06:20:51.438Z,23.83
2017-04-06T06:21:51.504Z,23.85
2017-04-06T06:22:51.500Z,23.9
2017-04-06T06:23:51.463Z,23.85
2017-04-06T06:24:50.884Z,23.88
2017-04-06T06:25:51.216Z,23.85
2017-04-06T06:26:51.474Z,23.95
2017-04-06T06:27:51.542Z,23.94
2017-04-06T06:28:51.537Z,23.97
2017-04-06T06:29:52.750Z,23.91
2017-04-06T06:30:51.508Z,23.93
2017-04-06T06:31:51.509Z,23.88
2017-04-06T06:32:51.254Z,23.87
2017-04-06T06:33:51.320Z,23.88
2017-04-06T06:34:51.630Z,23.88
2017-04-06T06:35:51.870Z,23.91
2017-04-06T06:36:51.587Z,23.95
2017-04-06T06:37:51.564Z,23.85
2017-04-06T06:38:51.556Z,23.85
2017-04-06T06:39:51.569Z,23.88
2017-04-06T06:40:51.566Z,23.76
2017-04-06T06:41:51.626Z,23.83
2017-04-06T06:42:51.579Z,23.75
2017-04-06T06:43:51.376Z,23.8
2017-04-06T06:44:51.600Z,23.9
2017-04-06T06:45:51.703Z,23.93
2017-04-06T06:46:51.654Z,23.94
2017-04-06T06:47:52.151Z,23.97
2017-04-06T06:48:51.763Z,23.85
2017-04-06T06:49:51.154Z,23.85
2017-04-06T06:50:51.677Z,23.73
2017-04-06T06:51:51.677Z,23.79
2017-04-06T06:52:52.218Z,23.8
2017-04-06T06:53:51.341Z,23.84
2017-04-06T06:54:51.436Z,23.84
2017-04-06T06:55:51.758Z,23.9
2017-04-06T06:56:51.723Z,23.88
2017-04-06T06:57:51.706Z,23.88
2017-04-06T06:58:51.706Z,23.85
2017-04-06T06:59:51.421Z,23.95
2017-04-06T07:00:51.795Z,24.1
2017-04-06T07:01:51.694Z,24.12
2017-04-06T07:02:51.813Z,24.09
2017-04-06T07:03:51.766Z,24.13
2017-04-06T07:04:51.455Z,24.1
2017-04-06T07:05:51.725Z,24.05
2017-04-06T07:06:51.776Z,24.22
2017-04-06T07:07:51.796Z,24.27
2017-04-06T07:08:51.739Z,24.22
2017-04-06T07:09:51.802Z,24.34
2017-04-06T07:10:51.760Z,24.32
2017-04-06T07:11:52.761Z,24.27
2017-04-06T07:12:51.812Z,24.3
2017-04-06T07:13:51.783Z,24.28
2017-04-06T07:14:51.912Z,24.3
2017-04-06T07:15:51.840Z,24.28
2017-04-06T07:16:51.483Z,24.3
2017-04-06T07:17:51.487Z,24.27
2017-04-06T07:18:51.495Z,24.24
2017-04-06T07:19:51.864Z,24.25
2017-04-06T07:20:51.923Z,24.31
2017-04-06T07:21:51.873Z,24.37
2017-04-06T07:22:51.880Z,24.43
2017-04-06T07:23:51.587Z,24.4
2017-04-06T07:24:51.895Z,24.55
2017-04-06T07:25:51.896Z,24.65
2017-04-06T07:26:51.967Z,24.87
2017-04-06T07:27:51.877Z,24.69
2017-04-06T07:28:51.968Z,24.77
2017-04-06T07:29:51.635Z,24.68
2017-04-06T07:30:51.987Z,24.65
2017-04-06T07:31:52.003Z,24.8
2017-04-06T07:32:51.949Z,24.88
2017-04-06T07:33:51.978Z,24.87
2017-04-06T07:34:51.966Z,24.99
2017-04-06T07:35:52.016Z,25.09
2017-04-06T07:36:51.923Z,25.1
2017-04-06T07:37:51.620Z,25.08
2017-04-06T07:38:51.686Z,25.08
2017-04-06T07:39:51.681Z,25.15
2017-04-06T07:40:51.747Z,25.23
2017-04-06T07:41:52.016Z,25.14
2017-04-06T07:42:51.970Z,25.24
2017-04-06T07:43:51.752Z,25.21
2017-04-06T07:44:51.449Z,25.38
2017-04-06T07:45:52.045Z,25.46
2017-04-06T07:46:51.720Z,25.6
2017-04-06T07:47:51.790Z,25.67
2017-04-06T07:48:52.012Z,25.82
2017-04-06T07:49:52.058Z,25.87
2017-04-06T07:50:52.020Z,26.01
2017-04-06T07:51:52.327Z,26.06
2017-04-06T07:52:52.120Z,26.02
2017-04-06T07:53:52.084Z,26.26
2017-04-06T07:54:52.051Z,26.36
2017-04-06T07:55:51.794Z,26.35
2017-04-06T07:56:52.104Z,26.39
2017-04-06T07:57:52.112Z,26.43
2017-04-06T07:58:52.119Z,26.52
2017-04-06T07:59:52.133Z,26.52
2017-04-06T08:00:52.132Z,26.66
2017-04-06T08:01:51.770Z,26.76
2017-04-06T08:02:51.842Z,26.72
2017-04-06T08:03:52.210Z,26.77
2017-04-06T08:04:51.531Z,26.85
2017-04-06T08:05:52.166Z,26.94
2017-04-06T08:06:52.178Z,26.95
2017-04-06T08:07:52.132Z,27.06
2017-04-06T08:08:51.873Z,27.1
2017-04-06T08:09:52.253Z,27.02
2017-04-06T08:10:52.198Z,26.95
2017-04-06T08:11:52.203Z,27.03
2017-04-06T08:12:52.147Z,27.12
2017-04-06T08:13:52.219Z,27.07
2017-04-06T08:14:53.126Z,27.1
2017-04-06T08:15:52.838Z,27.09
2017-04-06T08:16:52.269Z,27.12
2017-04-06T08:17:52.198Z,27.07
2017-04-06T08:18:52.250Z,27.13
2017-04-06T08:19:52.317Z,27.02
2017-04-06T08:20:52.221Z,27.06
2017-04-06T08:21:52.272Z,27.07
2017-04-06T08:22:51.654Z,27.04
2017-04-06T08:23:52.289Z,27.13
2017-04-06T08:24:52.295Z,27.22
2017-04-06T08:25:52.307Z,27.44
2017-04-06T08:26:52.264Z,27.5
2017-04-06T08:27:51.999Z,27.72
2017-04-06T08:28:52.067Z,27.84
2017-04-06T08:29:52.014Z,27.84
2017-04-06T08:30:52.355Z,27.9
2017-04-06T08:31:51.676Z,27.79
2017-04-06T08:32:51.991Z,27.94
2017-04-06T08:33:52.055Z,27.97
2017-04-06T08:34:52.078Z,27.99
2017-04-06T08:35:52.321Z,28.61
2017-04-06T08:36:52.383Z,29.02
2017-04-06T08:37:52.076Z,28.46
2017-04-06T08:38:52.463Z,27.88
2017-04-06T08:39:52.401Z,27.5
2017-04-06T08:40:52.796Z,27.34
2017-04-06T08:41:52.107Z,27.25
2017-04-06T08:42:52.432Z,27.54
2017-04-06T08:43:52.112Z,27.82
2017-04-06T08:44:52.127Z,27.55
2017-04-06T08:45:52.195Z,28.61
2017-04-06T08:46:52.201Z,29.6
2017-04-06T08:47:52.417Z,30.19
2017-04-06T08:48:52.425Z,28.81
2017-04-06T08:49:52.483Z,28.19
2017-04-06T08:50:52.634Z,27.82
2017-04-06T08:51:52.255Z,27.63
2017-04-06T08:52:52.500Z,27.4
2017-04-06T08:53:52.509Z,27.24
2017-04-06T08:54:52.196Z,27.1
2017-04-06T08:55:52.314Z,27.09
2017-04-06T08:56:52.209Z,27.09
2017-04-06T08:57:52.498Z,27.09
2017-04-06T08:58:52.788Z,27.06
2017-04-06T08:59:52.498Z,27.12
2017-04-06T09:00:52.616Z,26.99
2017-04-06T09:01:52.563Z,27.02
2017-04-06T09:02:52.270Z,26.97
2017-04-06T09:03:52.637Z,26.97
2017-04-06T09:04:52.219Z,27
2017-04-06T09:05:52.590Z,26.87
2017-04-06T09:06:52.230Z,26.92
2017-04-06T09:07:52.555Z,26.89
2017-04-06T09:08:52.304Z,26.99
2017-04-06T09:09:52.259Z,26.95
2017-04-06T09:10:52.679Z,26.94
2017-04-06T09:11:52.601Z,26.91
2017-04-06T09:12:52.696Z,26.97
2017-04-06T09:13:52.343Z,26.91
2017-04-06T09:14:52.348Z,26.97
2017-04-06T09:15:52.614Z,26.94
2017-04-06T09:16:52.677Z,26.94
2017-04-06T09:17:52.367Z,26.92
2017-04-06T09:18:52.646Z,27.09
2017-04-06T09:19:52.649Z,27.04
2017-04-06T09:20:52.697Z,26.99
2017-04-06T09:21:52.707Z,27.02
2017-04-06T09:22:52.400Z,26.89
2017-04-06T09:23:52.669Z,26.97
2017-04-06T09:24:52.724Z,27.1
2017-04-06T09:25:52.795Z,27.06
2017-04-06T09:26:52.767Z,27.07
2017-04-06T09:27:52.385Z,27.04
2017-04-06T09:28:52.767Z,27.06
2017-04-06T09:29:52.722Z,27.12
2017-04-06T09:30:52.771Z,27.02
2017-04-06T09:31:52.776Z,27
2017-04-06T09:32:52.740Z,27.02
2017-04-06T09:33:52.742Z,27.06
2017-04-06T09:34:52.818Z,27.07
2017-04-06T09:35:52.505Z,27.09
2017-04-06T09:36:52.450Z,27.06
2017-04-06T09:37:52.793Z,27.14
2017-04-06T09:38:52.775Z,27.12
2017-04-06T09:39:52.836Z,27.17
2017-04-06T09:40:52.172Z,27.09
2017-04-06T09:41:52.904Z,27.12
2017-04-06T09:42:52.626Z,27.14
2017-04-06T09:43:52.619Z,27.07
2017-04-06T09:44:52.823Z,27.07
2017-04-06T09:45:52.847Z,27.12
2017-04-06T09:46:52.848Z,27.12
2017-04-06T09:47:52.896Z,27.13
2017-04-06T09:48:52.926Z,27.07
2017-04-06T09:49:52.918Z,27.13
2017-04-06T09:50:52.968Z,27.29
2017-04-06T09:51:52.982Z,27.29
2017-04-06T09:52:52.928Z,27.12
2017-04-06T09:53:52.944Z,27.22
2017-04-06T09:54:52.715Z,27.09
2017-04-06T09:55:52.952Z,27.19
2017-04-06T09:56:54.745Z,27.19
2017-04-06T09:57:52.982Z,27.21
2017-04-06T09:58:52.658Z,27.12
2017-04-06T09:59:52.989Z,27.24
2017-04-06T10:00:53.043Z,27.22
2017-04-06T10:01:52.730Z,27.27
2017-04-06T10:02:52.952Z,27.24
2017-04-06T10:03:52.754Z,27.28
2017-04-06T10:04:53.041Z,27.39
2017-04-06T10:05:53.032Z,27.39
2017-04-06T10:06:52.774Z,27.34
2017-04-06T10:07:53.046Z,27.32
2017-04-06T10:08:53.133Z,27.24
2017-04-06T10:09:53.127Z,27.31
2017-04-06T10:10:53.118Z,27.28
2017-04-06T10:11:52.760Z,27.31
2017-04-06T10:12:52.404Z,27.24
2017-04-06T10:13:52.783Z,27.22
2017-04-06T10:14:52.776Z,27.18
2017-04-06T10:15:53.148Z,27.21
2017-04-06T10:16:53.103Z,27.17
2017-04-06T10:17:52.752Z,27.13
2017-04-06T10:18:53.129Z,27.19
2017-04-06T10:19:53.187Z,27.19
2017-04-06T10:20:53.138Z,27.31
2017-04-06T10:21:53.097Z,27.13
2017-04-06T10:22:53.209Z,27.27
2017-04-06T10:23:53.161Z,27.4
2017-04-06T10:24:52.804Z,27.22
2017-04-06T10:25:53.169Z,27.1
2017-04-06T10:26:53.129Z,27.24
2017-04-06T10:27:53.236Z,27.44
2017-04-06T10:28:53.249Z,27.41
2017-04-06T10:29:53.164Z,27.47
2017-04-06T10:30:53.210Z,27.5
2017-04-06T10:31:53.175Z,27.5
2017-04-06T10:32:52.918Z,27.66
2017-04-06T10:33:53.251Z,27.75
2017-04-06T10:34:52.884Z,27.63
2017-04-06T10:35:53.252Z,27.49
2017-04-06T10:36:53.312Z,27.54
2017-04-06T10:37:53.005Z,27.47
2017-04-06T10:38:53.229Z,27.32
2017-04-06T10:39:53.010Z,27.21
2017-04-06T10:40:53.290Z,27.24
2017-04-06T10:41:53.298Z,27.09
2017-04-06T10:42:52.991Z,27.1
2017-04-06T10:43:53.312Z,27.1
2017-04-06T10:44:53.312Z,27.12
2017-04-06T10:45:53.374Z,27.07
2017-04-06T10:46:53.281Z,27.09
2017-04-06T10:47:53.021Z,27.14
2017-04-06T10:48:53.080Z,27.1
2017-04-06T10:49:53.311Z,27.14
2017-04-06T10:50:53.360Z,27.19
2017-04-06T10:51:53.380Z,27.18
2017-04-06T10:52:53.372Z,27.12
2017-04-06T10:53:53.340Z,27.22
2017-04-06T10:54:53.393Z,27.36
2017-04-06T10:55:53.399Z,27.1
2017-04-06T10:56:53.402Z,27.24
2017-04-06T10:57:53.419Z,27.32
2017-04-06T10:58:53.115Z,27.29
2017-04-06T10:59:53.376Z,27.29
2017-04-06T11:00:53.444Z,27.17
2017-04-06T11:01:53.442Z,27.1
2017-04-06T11:02:53.472Z,27.13
2017-04-06T11:03:53.141Z,27.1
2017-04-06T11:04:53.516Z,27.07
2017-04-06T11:05:53.478Z,27.07
2017-04-06T11:06:53.131Z,27.09
2017-04-06T11:07:53.487Z,27.03
2017-04-06T11:08:53.242Z,27.03
2017-04-06T11:09:53.654Z,26.8
2017-04-06T11:10:53.508Z,26.65
2017-04-06T11:11:52.988Z,26.48
2017-04-06T11:12:53.531Z,26.33
2017-04-06T11:13:53.533Z,26.39
2017-04-06T11:14:53.589Z,26.17
2017-04-06T11:15:53.514Z,26.32
2017-04-06T11:16:53.356Z,26.52
2017-04-06T11:17:53.677Z,26.54
2017-04-06T11:18:53.575Z,26.65
2017-04-06T11:19:54.365Z,26.67
2017-04-06T11:20:53.630Z,26.69
2017-04-06T11:21:53.542Z,26.67
2017-04-06T11:22:53.702Z,26.8
2017-04-06T11:23:53.562Z,26.75
2017-04-06T11:24:53.614Z,26.75
2017-04-06T11:25:53.354Z,26.8
2017-04-06T11:26:53.691Z,26.82
2017-04-06T11:27:53.600Z,26.88
2017-04-06T11:28:53.889Z,26.77
2017-04-06T11:29:53.647Z,26.75
2017-04-06T11:30:53.663Z,26.7
2017-04-06T11:31:53.351Z,26.75
2017-04-06T11:32:53.355Z,26.63
2017-04-06T11:33:53.631Z,26.72
2017-04-06T11:34:53.689Z,26.65
2017-04-06T11:35:53.379Z,26.77
2017-04-06T11:36:53.752Z,26.69
2017-04-06T11:37:53.960Z,26.82
2017-04-06T11:38:53.660Z,26.85
2017-04-06T11:39:53.411Z,26.8
2017-04-06T11:40:53.503Z,26.8
2017-04-06T11:41:53.481Z,26.82
2017-04-06T11:42:53.429Z,26.77
2017-04-06T11:43:53.439Z,26.82
2017-04-06T11:44:53.714Z,26.87
2017-04-06T11:45:53.774Z,26.85
2017-04-06T11:46:53.742Z,26.91
2017-04-06T11:47:53.623Z,26.81
2017-04-06T11:48:53.787Z,26.87
2017-04-06T11:49:53.537Z,26.91
2017-04-06T11:50:53.822Z,26.92
2017-04-06T11:51:53.500Z,27
2017-04-06T11:52:53.856Z,27.12
2017-04-06T11:53:53.775Z,27.09
2017-04-06T11:54:53.524Z,27.13
2017-04-06T11:55:53.848Z,27.06
2017-04-06T11:56:53.911Z,27.06
2017-04-06T11:57:53.541Z,27.03
2017-04-06T11:58:53.815Z,26.99
2017-04-06T11:59:53.933Z,27.09
2017-04-06T12:00:53.876Z,27.02
2017-04-06T12:01:53.941Z,26.97
2017-04-06T12:02:53.684Z,26.94
2017-04-06T12:03:53.913Z,26.94
2017-04-06T12:04:53.868Z,26.94
2017-04-06T12:05:53.651Z,26.88
2017-04-06T12:06:53.939Z,26.94
2017-04-06T12:07:53.988Z,26.8
2017-04-06T12:08:53.936Z,26.82
2017-04-06T12:09:53.628Z,26.84
2017-04-06T12:10:53.966Z,26.84
2017-04-06T12:11:53.911Z,26.88
2017-04-06T12:12:53.930Z,26.95
2017-04-06T12:13:54.063Z,26.88
2017-04-06T12:14:54.022Z,26.87
2017-04-06T12:15:53.729Z,26.85
2017-04-06T12:16:53.966Z,26.89
2017-04-06T12:17:54.059Z,26.82
2017-04-06T12:18:54.080Z,26.88
2017-04-06T12:19:53.709Z,26.84
2017-04-06T12:20:54.030Z,26.88
2017-04-06T12:21:55.686Z,26.84
2017-04-06T12:22:53.727Z,26.99
2017-04-06T12:23:54.151Z,26.97
2017-04-06T12:24:54.067Z,27
2017-04-06T12:25:54.014Z,26.94
2017-04-06T12:26:54.068Z,26.94
2017-04-06T12:27:54.027Z,26.88
2017-04-06T12:28:54.093Z,26.92
2017-04-06T12:29:53.418Z,26.84
2017-04-06T12:30:54.106Z,26.91
2017-04-06T12:31:54.155Z,26.81
2017-04-06T12:32:53.853Z,26.85
2017-04-06T12:33:54.130Z,26.84
2017-04-06T12:34:54.183Z,26.65
2017-04-06T12:35:54.196Z,26.54
2017-04-06T12:36:53.780Z,26.44
2017-04-06T12:37:54.101Z,26.37
2017-04-06T12:38:54.185Z,26.55
2017-04-06T12:39:54.173Z,26.48
2017-04-06T12:40:54.171Z,26.39
2017-04-06T12:41:54.179Z,26.39
2017-04-06T12:42:54.141Z,26.35
2017-04-06T12:43:54.141Z,26.48
2017-04-06T12:44:54.229Z,26.43
2017-04-06T12:45:53.945Z,26.43
2017-04-06T12:46:53.918Z,26.33
2017-04-06T12:47:53.969Z,26.32
2017-04-06T12:48:54.729Z,26.35
2017-04-06T12:49:53.871Z,26.4
2017-04-06T12:50:54.199Z,26.5
2017-04-06T12:51:53.991Z,26.52
2017-04-06T12:52:54.300Z,26.35
2017-04-06T12:53:54.231Z,26.35
2017-04-06T12:54:54.351Z,26.45
2017-04-06T12:55:54.234Z,26.48
2017-04-06T12:56:54.293Z,26.43